createdAt,value
2019-04-25T00:01:36.513Z,11.50
2019-04-25T00:04:04.193Z,11.50
2019-04-25T00:06:32.171Z,11.40
2019-04-25T00:08:59.578Z,11.40
2019-04-25T00:11:26.982Z,11.40
2019-04-25T00:13:54.346Z,11.40
2019-04-25T00:16:23.529Z,11.40
2019-04-25T00:40:52.448Z,11.50
2019-04-25T00:43:21.485Z,11.60
2019-04-25T00:45:49.555Z,11.60
2019-04-25T00:48:16.983Z,11.70
2019-04-25T00:50:44.566Z,11.70
2019-04-25T00:53:11.966Z,11.80
2019-04-25T00:55:39.370Z,11.80
2019-04-25T00:58:15.462Z,11.80
2019-04-25T01:00:55.579Z,11.90
2019-04-25T01:03:26.034Z,11.90
2019-04-25T01:05:54.545Z,11.90
2019-04-25T01:08:22.043Z,12.00
2019-04-25T01:10:50.515Z,12.00
2019-04-25T01:13:18.670Z,12.00
2019-04-25T01:15:46.397Z,12.00
2019-04-25T01:18:13.727Z,12.00
2019-04-25T01:20:41.106Z,12.00
2019-04-25T01:23:08.526Z,12.10
2019-04-25T01:25:40.950Z,12.10
2019-04-25T01:28:05.265Z,12.10
2019-04-25T01:30:33.964Z,12.20
2019-04-25T01:33:01.441Z,12.30
2019-04-25T01:35:40.985Z,12.30
2019-04-25T01:38:17.544Z,12.40
2019-04-25T01:40:55.602Z,12.30
2019-04-25T01:43:43.631Z,12.40
2019-04-25T01:46:11.230Z,12.30
2019-04-25T01:48:38.612Z,12.30
2019-04-25T01:51:06.407Z,12.30
2019-04-25T01:53:33.922Z,12.30
2019-04-25T01:56:07.229Z,12.40
2019-04-25T01:58:33.655Z,12.40
2019-04-25T02:01:01.191Z,12.40
2019-04-25T02:03:28.583Z,12.40
2019-04-25T02:05:56.162Z,12.50
2019-04-25T02:08:24.465Z,12.50
2019-04-25T02:11:01.146Z,12.50
2019-04-25T02:13:28.645Z,12.50
2019-04-25T02:15:56.035Z,12.50
2019-04-25T02:18:24.262Z,12.50
2019-04-25T02:20:54.233Z,12.50
2019-04-25T02:23:20.858Z,12.60
2019-04-25T02:25:48.242Z,12.60
2019-04-25T02:28:15.940Z,12.60
2019-04-25T02:30:45.432Z,12.60
2019-04-25T02:33:14.242Z,12.60
2019-04-25T02:35:43.946Z,12.60
2019-04-25T02:38:10.919Z,12.60
2019-04-25T02:40:38.322Z,12.50
2019-04-25T02:43:07.919Z,12.50
2019-04-25T02:45:55.492Z,12.40
2019-04-25T02:48:56.216Z,12.40
2019-04-25T02:51:35.095Z,12.40
2019-04-25T02:54:05.241Z,12.40
2019-04-25T02:56:37.740Z,12.40
2019-04-25T02:59:00.939Z,12.50
2019-04-25T03:01:28.379Z,12.40
2019-04-25T03:03:57.439Z,12.50
2019-04-25T03:06:25.153Z,12.50
2019-04-25T03:08:54.331Z,12.50
2019-04-25T03:11:24.201Z,12.60
2019-04-25T03:13:50.949Z,12.60
2019-04-25T03:16:18.353Z,12.70
2019-04-25T03:19:07.828Z,12.70
2019-04-25T03:21:35.433Z,12.70
2019-04-25T03:24:08.130Z,12.80
2019-04-25T03:26:39.781Z,12.80
2019-04-25T03:29:01.384Z,12.80
2019-04-25T03:31:28.883Z,12.90
2019-04-25T03:33:56.295Z,12.80
2019-04-25T03:36:23.941Z,12.80
2019-04-25T03:38:51.298Z,12.80
2019-04-25T03:41:18.686Z,12.80
2019-04-25T03:43:46.094Z,12.80
2019-04-25T03:46:14.295Z,12.80
2019-04-25T03:48:41.810Z,12.80
2019-04-25T03:51:09.974Z,12.80
2019-04-25T03:53:37.390Z,12.80
2019-04-25T03:56:06.041Z,12.70
2019-04-25T03:58:33.994Z,12.70
2019-04-25T04:01:01.375Z,12.70
2019-04-25T04:03:28.784Z,12.70
2019-04-25T04:05:56.205Z,12.70
2019-04-25T04:08:24.298Z,12.70
2019-04-25T04:10:51.658Z,12.70
2019-04-25T04:13:19.070Z,12.70
2019-04-25T04:15:46.454Z,12.70
2019-04-25T04:18:38.955Z,12.70
2019-04-25T04:21:16.234Z,12.70
2019-04-25T04:23:59.054Z,12.70
2019-04-25T04:26:26.430Z,12.70
2019-04-25T04:28:53.847Z,12.70
2019-04-25T04:31:21.242Z,12.70
2019-04-25T04:33:48.647Z,12.80
2019-04-25T04:36:17.713Z,12.80
2019-04-25T04:38:45.271Z,12.80
2019-04-25T04:41:14.229Z,12.80
2019-04-25T04:43:41.833Z,12.80
2019-04-25T04:46:10.127Z,12.90
2019-04-25T04:48:37.615Z,12.90
2019-04-25T04:51:05.014Z,12.80
2019-04-25T04:53:35.541Z,12.90
2019-04-25T04:56:01.581Z,12.90
2019-04-25T04:58:29.038Z,12.90
2019-04-25T05:00:56.446Z,12.90
2019-04-25T05:03:32.066Z,12.90
2019-04-25T05:06:19.598Z,12.90
2019-04-25T05:08:49.995Z,12.90
2019-04-25T05:11:18.165Z,13.00
2019-04-25T05:13:45.582Z,13.10
2019-04-25T05:16:15.032Z,13.10
2019-04-25T05:18:43.759Z,13.00
2019-04-25T05:21:11.860Z,13.10
2019-04-25T05:23:40.032Z,13.10
2019-04-25T05:26:07.419Z,13.10
2019-04-25T05:28:34.851Z,13.10
2019-04-25T05:31:09.630Z,13.10
2019-04-25T05:33:37.047Z,13.10
2019-04-25T05:36:05.931Z,13.10
2019-04-25T05:38:33.382Z,13.10
2019-04-25T05:41:09.286Z,13.10
2019-04-25T05:43:36.706Z,13.20
2019-04-25T05:46:04.123Z,13.10
2019-04-25T05:48:31.549Z,13.20
2019-04-25T05:50:58.938Z,13.20
2019-04-25T05:53:26.385Z,13.20
2019-04-25T05:55:54.121Z,13.20
2019-04-25T05:58:22.414Z,13.20
2019-04-25T06:00:50.942Z,13.20
2019-04-25T06:03:18.754Z,13.20
2019-04-25T06:05:46.159Z,13.10
2019-04-25T06:08:15.696Z,13.10
2019-04-25T06:10:50.926Z,13.10
2019-04-25T06:13:27.772Z,13.10
2019-04-25T06:16:01.388Z,13.10
2019-04-25T06:18:34.883Z,13.20
2019-04-25T06:21:03.122Z,13.20
2019-04-25T06:23:48.154Z,13.20
2019-04-25T06:26:24.744Z,13.20
2019-04-25T06:28:52.439Z,13.30
2019-04-25T06:31:14.510Z,13.30
2019-04-25T06:33:43.344Z,13.30
2019-04-25T06:36:10.786Z,13.40
2019-04-25T06:38:38.187Z,13.40
2019-04-25T06:41:05.577Z,13.40
2019-04-25T06:43:34.225Z,13.40
2019-04-25T06:46:39.489Z,13.40
2019-04-25T06:49:11.019Z,13.40
2019-04-25T06:51:48.323Z,13.40
2019-04-25T06:54:15.621Z,13.40
2019-04-25T06:56:43.487Z,13.40
2019-04-25T06:59:10.881Z,13.50
2019-04-25T07:01:38.264Z,13.50
2019-04-25T07:04:05.650Z,13.60
2019-04-25T07:06:33.815Z,13.70
2019-04-25T07:09:03.090Z,13.70
2019-04-25T07:11:30.575Z,13.70
2019-04-25T07:13:57.977Z,13.60
2019-04-25T07:16:26.044Z,13.70
2019-04-25T07:18:53.504Z,13.60
2019-04-25T07:21:20.850Z,13.60
2019-04-25T07:23:48.229Z,13.70
2019-04-25T07:26:26.091Z,13.70
2019-04-25T07:29:03.274Z,13.80
2019-04-25T07:31:51.706Z,13.70
2019-04-25T07:34:21.196Z,13.70
2019-04-25T07:36:48.575Z,13.80
2019-04-25T07:39:15.982Z,13.80
2019-04-25T07:41:44.136Z,13.90
2019-04-25T07:44:11.560Z,13.90
2019-04-25T07:46:40.023Z,13.90
2019-04-25T07:49:07.673Z,14.00
2019-04-25T07:51:35.531Z,14.20
2019-04-25T07:54:04.491Z,14.30
2019-04-25T07:56:31.931Z,14.30
2019-04-25T07:58:59.310Z,14.40
2019-04-25T08:01:26.886Z,14.50
2019-04-25T08:03:55.306Z,14.60
2019-04-25T08:06:24.134Z,15.00
2019-04-25T08:08:51.618Z,15.20
2019-04-25T08:11:19.013Z,15.40
2019-04-25T08:14:05.953Z,15.60
2019-04-25T08:16:34.820Z,15.70
2019-04-25T08:19:04.408Z,15.70
2019-04-25T08:21:34.056Z,15.60
2019-04-25T08:24:03.020Z,15.60
2019-04-25T08:26:31.176Z,15.50
2019-04-25T08:28:58.558Z,15.60
2019-04-25T08:31:25.942Z,15.80
2019-04-25T08:33:53.645Z,15.80
2019-04-25T08:36:21.042Z,15.90
2019-04-25T08:38:48.428Z,16.00
2019-04-25T08:41:15.791Z,16.00
2019-04-25T08:43:45.279Z,16.00
2019-04-25T08:46:14.030Z,16.00
2019-04-25T08:49:19.009Z,16.00
2019-04-25T08:51:46.430Z,16.00
2019-04-25T08:54:21.494Z,16.10
2019-04-25T08:56:48.877Z,16.20
2019-04-25T08:59:40.644Z,16.40
2019-04-25T09:02:13.596Z,16.50
2019-04-25T09:05:00.682Z,16.60
2019-04-25T09:07:28.058Z,16.60
2019-04-25T09:09:55.439Z,16.60
2019-04-25T09:12:24.005Z,16.60
2019-04-25T09:14:51.427Z,16.60
2019-04-25T09:17:18.814Z,16.70
2019-04-25T09:19:46.246Z,16.70
2019-04-25T09:22:13.629Z,16.70
2019-04-25T09:24:42.023Z,16.80
2019-04-25T09:27:09.550Z,16.80
2019-04-25T09:29:36.934Z,16.90
2019-04-25T09:32:04.522Z,17.00
2019-04-25T09:34:33.464Z,17.10
2019-04-25T09:37:01.122Z,17.30
2019-04-25T09:40:00.283Z,17.40
2019-04-25T09:42:27.652Z,17.50
2019-04-25T09:45:13.633Z,17.60
2019-04-25T09:47:44.590Z,17.60
2019-04-25T09:50:20.818Z,17.60
2019-04-25T09:52:48.726Z,17.60
2019-04-25T09:55:34.068Z,17.90
2019-04-25T09:58:27.012Z,18.00
2019-04-25T10:00:58.652Z,17.90
2019-04-25T10:03:26.038Z,17.60
2019-04-25T10:05:53.454Z,17.60
2019-04-25T10:08:20.879Z,17.60
2019-04-25T10:10:48.259Z,17.60
2019-04-25T10:13:15.644Z,17.60
2019-04-25T10:15:56.627Z,17.40
2019-04-25T10:18:24.019Z,17.50
2019-04-25T10:20:51.605Z,17.50
2019-04-25T10:23:19.006Z,17.70
2019-04-25T10:25:46.887Z,17.80
2019-04-25T10:28:14.262Z,17.90
2019-04-25T10:30:41.650Z,18.00
2019-04-25T10:33:09.126Z,18.20
2019-04-25T10:35:46.668Z,18.10
2019-04-25T10:38:05.682Z,17.90
2019-04-25T10:40:33.797Z,17.70
2019-04-25T10:43:01.293Z,17.60
2019-04-25T10:45:29.384Z,17.60
2019-04-25T10:47:56.758Z,17.70
2019-04-25T10:50:24.159Z,17.70
2019-04-25T10:52:52.737Z,17.80
2019-04-25T10:55:20.869Z,17.90
2019-04-25T10:57:48.359Z,17.90
2019-04-25T11:00:27.623Z,17.80
2019-04-25T11:02:57.112Z,17.80
2019-04-25T11:05:24.503Z,17.50
2019-04-25T11:07:54.327Z,17.30
2019-04-25T11:10:23.592Z,17.00
2019-04-25T11:12:50.992Z,16.80
2019-04-25T11:15:18.354Z,16.70
2019-04-25T11:17:46.672Z,16.60
2019-04-25T11:20:24.842Z,16.50
2019-04-25T11:22:53.485Z,16.40
2019-04-25T11:25:20.951Z,16.10
2019-04-25T11:27:49.898Z,15.90
2019-04-25T11:30:17.822Z,15.80
2019-04-25T11:32:45.260Z,15.70
2019-04-25T11:35:13.990Z,15.50
2019-04-25T11:37:43.107Z,15.40
2019-04-25T11:40:19.474Z,15.20
2019-04-25T11:42:47.109Z,15.10
2019-04-25T11:45:14.755Z,15.00
2019-04-25T11:47:43.127Z,14.80
2019-04-25T11:50:11.455Z,14.80
2019-04-25T11:52:38.946Z,14.70
2019-04-25T11:55:08.142Z,14.60
2019-04-25T11:57:35.584Z,14.50
2019-04-25T12:00:04.220Z,14.40
2019-04-25T12:02:31.822Z,14.30
2019-04-25T12:04:59.315Z,14.40
2019-04-25T12:07:26.880Z,14.30
2019-04-25T12:09:55.571Z,14.30
2019-04-25T12:12:23.593Z,14.30
2019-04-25T12:14:51.664Z,14.30
2019-04-25T12:17:19.079Z,14.30
2019-04-25T12:19:47.064Z,14.20
2019-04-25T12:22:14.462Z,14.20
2019-04-25T12:24:43.523Z,14.30
2019-04-25T12:27:11.058Z,14.30
2019-04-25T12:29:38.871Z,14.30
2019-04-25T12:32:06.446Z,14.30
2019-04-25T12:34:33.912Z,14.30
2019-04-25T12:37:01.353Z,14.30
2019-04-25T12:39:28.943Z,14.40
2019-04-25T12:41:57.055Z,14.40
2019-04-25T12:44:47.468Z,14.40
2019-04-25T12:47:18.750Z,14.50
2019-04-25T12:49:46.720Z,14.60
2019-04-25T12:52:14.326Z,14.70
2019-04-25T12:54:41.696Z,14.80
2019-04-25T12:57:11.070Z,14.70
2019-04-25T12:59:38.530Z,14.70
2019-04-25T13:02:05.911Z,14.70
2019-04-25T13:04:34.916Z,14.70
2019-04-25T13:07:04.050Z,14.70
2019-04-25T13:09:31.646Z,14.60
2019-04-25T13:11:59.038Z,14.60
2019-04-25T13:14:26.442Z,14.70
2019-04-25T13:16:53.841Z,14.70
2019-04-25T13:19:25.965Z,14.60
2019-04-25T13:21:50.447Z,14.50
2019-04-25T13:24:17.829Z,14.50
2019-04-25T13:26:51.634Z,14.40
2019-04-25T13:29:33.229Z,14.40
2019-04-25T13:32:09.287Z,14.40
2019-04-25T13:34:40.086Z,14.30
2019-04-25T13:37:07.549Z,14.20
2019-04-25T13:39:34.949Z,14.10
2019-04-25T13:42:05.136Z,14.10
2019-04-25T13:44:32.133Z,14.10
2019-04-25T13:46:59.538Z,14.10
2019-04-25T13:49:27.244Z,14.10
2019-04-25T13:51:54.645Z,14.10
2019-04-25T13:54:23.735Z,14.00
2019-04-25T13:56:51.275Z,14.00
2019-04-25T13:59:18.649Z,14.10
2019-04-25T14:01:46.028Z,14.00
2019-04-25T14:04:14.220Z,14.00
2019-04-25T14:06:41.718Z,14.10
2019-04-25T14:09:13.379Z,14.10
2019-04-25T14:11:40.739Z,14.20
2019-04-25T14:14:08.018Z,14.20
2019-04-25T14:16:49.779Z,14.20
2019-04-25T14:19:36.162Z,14.20
2019-04-25T14:22:04.405Z,14.20
2019-04-25T14:24:32.283Z,14.20
2019-04-25T14:27:00.118Z,14.20
2019-04-25T14:29:28.236Z,14.10
2019-04-25T14:31:55.583Z,14.10
2019-04-25T14:34:23.480Z,14.30
2019-04-25T14:36:52.158Z,14.40
2019-04-25T14:39:21.170Z,14.50
2019-04-25T14:41:48.660Z,14.60
2019-04-25T14:44:16.062Z,14.70
2019-04-25T14:46:43.563Z,14.70
2019-04-25T14:49:11.243Z,14.80
2019-04-25T14:51:38.638Z,14.80
2019-04-25T14:54:10.610Z,14.90
2019-04-25T14:57:12.694Z,15.00
2019-04-25T14:59:40.088Z,15.10
2019-04-25T15:02:07.470Z,15.20
2019-04-25T15:04:35.312Z,15.20
2019-04-25T15:07:02.767Z,15.30
2019-04-25T15:09:30.163Z,15.30
2019-04-25T15:11:57.566Z,15.40
2019-04-25T15:14:24.954Z,15.30
2019-04-25T15:16:52.355Z,15.30
2019-04-25T15:19:19.738Z,15.30
2019-04-25T15:21:47.133Z,15.20
2019-04-25T15:24:14.518Z,15.10
2019-04-25T15:26:41.906Z,15.10
2019-04-25T15:29:09.282Z,15.00
2019-04-25T15:31:36.700Z,15.00
2019-04-25T15:34:04.082Z,15.00
2019-04-25T15:36:49.342Z,15.00
2019-04-25T15:39:42.132Z,15.00
2019-04-25T15:42:43.959Z,14.90
2019-04-25T15:45:23.834Z,14.90
2019-04-25T15:47:51.446Z,14.90
2019-04-25T15:50:18.825Z,14.90
2019-04-25T15:52:46.209Z,15.00
2019-04-25T15:55:13.622Z,14.90
2019-04-25T15:57:40.998Z,14.90
2019-04-25T16:00:14.126Z,14.90
2019-04-25T16:02:41.522Z,14.80
2019-04-25T16:05:08.916Z,14.80
2019-04-25T16:07:36.282Z,14.80
2019-04-25T16:10:03.812Z,14.70
2019-04-25T16:12:31.093Z,14.70
2019-04-25T16:14:58.355Z,14.60
2019-04-25T16:17:25.109Z,14.60
2019-04-25T16:19:52.538Z,14.50
2019-04-25T16:22:19.918Z,14.50
2019-04-25T16:24:47.351Z,14.60
2019-04-25T16:27:14.872Z,14.50
2019-04-25T16:29:42.269Z,14.50
2019-04-25T16:32:20.368Z,14.40
2019-04-25T16:34:42.975Z,14.10
2019-04-25T16:37:10.382Z,13.80
2019-04-25T16:39:38.078Z,13.50
2019-04-25T16:42:05.450Z,13.30
2019-04-25T16:44:32.846Z,13.10
2019-04-25T16:47:00.273Z,13.00
2019-04-25T16:49:27.638Z,12.90
2019-04-25T16:51:55.038Z,12.70
2019-04-25T16:54:22.402Z,12.60
2019-04-25T16:56:49.778Z,12.50
2019-04-25T16:59:17.191Z,12.50
2019-04-25T17:01:44.580Z,12.50
2019-04-25T17:04:11.976Z,12.50
2019-04-25T17:06:39.358Z,12.50
2019-04-25T17:09:06.754Z,12.50
2019-04-25T17:11:34.138Z,12.50
2019-04-25T17:14:16.194Z,12.50
2019-04-25T17:17:05.699Z,12.50
2019-04-25T17:19:44.647Z,12.50
2019-04-25T17:22:12.026Z,12.60
2019-04-25T17:24:39.621Z,12.60
2019-04-25T17:27:07.217Z,12.60
2019-04-25T17:29:34.625Z,12.60
2019-04-25T17:32:16.063Z,12.70
2019-04-25T17:35:05.649Z,12.70
2019-04-25T17:37:38.450Z,12.80
2019-04-25T17:40:18.631Z,12.90
2019-04-25T17:42:46.052Z,12.90
2019-04-25T17:45:18.118Z,12.90
2019-04-25T17:47:54.228Z,12.90
2019-04-25T17:50:14.750Z,13.00
2019-04-25T17:52:42.999Z,13.00
2019-04-25T17:55:10.489Z,12.90
2019-04-25T17:57:37.940Z,12.90
2019-04-25T18:00:09.089Z,12.80
2019-04-25T18:02:37.013Z,12.80
2019-04-25T18:05:04.557Z,12.80
2019-04-25T18:07:31.949Z,12.80
2019-04-25T18:09:59.313Z,12.70
2019-04-25T18:12:26.704Z,12.70
2019-04-25T18:14:55.872Z,12.70
2019-04-25T18:17:23.254Z,12.60
2019-04-25T18:19:55.605Z,12.60
2019-04-25T18:22:43.388Z,12.60
2019-04-25T18:25:23.783Z,12.60
2019-04-25T18:27:59.124Z,12.60
2019-04-25T18:30:26.545Z,12.50
2019-04-25T18:33:10.313Z,12.50
2019-04-25T18:35:35.516Z,12.50
2019-04-25T18:38:22.315Z,12.50
2019-04-25T18:41:12.330Z,12.50
2019-04-25T18:43:42.878Z,12.50
2019-04-25T18:46:18.584Z,12.50
2019-04-25T18:48:46.939Z,12.50
2019-04-25T18:51:14.397Z,12.50
2019-04-25T18:54:04.315Z,12.40
2019-04-25T18:56:51.226Z,12.40
2019-04-25T18:59:37.172Z,12.40
2019-04-25T19:02:21.398Z,12.30
2019-04-25T19:05:11.182Z,12.30
2019-04-25T19:07:39.498Z,12.20
2019-04-25T19:10:08.699Z,12.20
2019-04-25T19:12:36.103Z,12.20
2019-04-25T19:15:03.697Z,12.20
2019-04-25T19:17:31.113Z,12.20
2019-04-25T19:19:58.373Z,12.20
2019-04-25T19:22:25.249Z,12.10
2019-04-25T19:24:52.682Z,12.10
2019-04-25T19:27:23.774Z,12.10
2019-04-25T19:29:50.834Z,12.20
2019-04-25T19:32:18.440Z,12.20
2019-04-25T19:34:46.630Z,12.10
2019-04-25T19:37:14.028Z,12.10
2019-04-25T19:39:45.233Z,12.10
2019-04-25T19:42:31.291Z,12.10
2019-04-25T19:44:58.695Z,12.00
2019-04-25T19:47:26.098Z,12.00
2019-04-25T19:49:53.536Z,12.10
2019-04-25T19:52:20.919Z,12.10
2019-04-25T19:54:49.408Z,12.00
2019-04-25T19:57:16.816Z,12.00
2019-04-25T19:59:44.678Z,12.00
2019-04-25T20:02:22.460Z,12.00
2019-04-25T20:05:00.380Z,12.00
2019-04-25T20:07:53.434Z,12.00
2019-04-25T20:10:38.087Z,11.90
2019-04-25T20:13:05.467Z,11.90
2019-04-25T20:15:32.838Z,11.80
2019-04-25T20:18:00.315Z,11.80
2019-04-25T20:20:27.702Z,11.70
2019-04-25T20:22:55.089Z,11.70
2019-04-25T20:25:22.507Z,11.80
2019-04-25T20:27:50.752Z,11.80
2019-04-25T20:30:18.186Z,11.80
2019-04-25T20:32:46.192Z,11.80
2019-04-25T20:35:14.549Z,11.80
2019-04-25T20:37:41.841Z,11.70
2019-04-25T20:40:09.227Z,11.80
2019-04-25T20:42:36.593Z,11.80
2019-04-25T20:45:05.164Z,11.80
2019-04-25T20:47:32.534Z,11.80
2019-04-25T20:49:59.990Z,11.70
2019-04-25T20:52:27.386Z,11.70
2019-04-25T20:54:54.921Z,11.80
2019-04-25T20:57:22.278Z,11.80
2019-04-25T20:59:49.675Z,11.70
2019-04-25T21:02:17.101Z,11.70
2019-04-25T21:04:44.474Z,11.80
2019-04-25T21:07:11.886Z,11.80
2019-04-25T21:09:39.263Z,11.80
2019-04-25T21:12:06.642Z,11.80
2019-04-25T21:15:05.633Z,11.80
2019-04-25T21:17:38.794Z,11.80
2019-04-25T21:20:06.371Z,11.70
2019-04-25T21:22:33.782Z,11.70
2019-04-25T21:25:02.388Z,11.70
2019-04-25T21:27:31.671Z,11.70
2019-04-25T21:29:59.784Z,11.70
2019-04-25T21:32:27.189Z,11.70
2019-04-25T21:34:55.194Z,11.70
2019-04-25T21:37:22.613Z,11.70
2019-04-25T21:40:09.882Z,11.60
2019-04-25T21:42:47.922Z,11.50
2019-04-25T21:45:15.538Z,11.60
2019-04-25T21:47:42.944Z,11.60
2019-04-25T21:50:10.627Z,11.50
2019-04-25T21:52:38.322Z,11.50
2019-04-25T21:55:06.360Z,11.50
2019-04-25T21:57:33.943Z,11.50
2019-04-25T22:00:06.797Z,11.50
2019-04-25T22:02:31.074Z,11.50
2019-04-25T22:04:58.740Z,11.50
2019-04-25T22:07:26.385Z,11.50
2019-04-25T22:09:55.465Z,11.40
2019-04-25T22:12:22.963Z,11.40
2019-04-25T22:14:50.366Z,11.30
2019-04-25T22:17:17.937Z,11.30
2019-04-25T22:19:45.638Z,11.30
2019-04-25T22:22:13.136Z,11.20
2019-04-25T22:24:40.548Z,11.20
2019-04-25T22:27:12.170Z,11.10
2019-04-25T22:29:41.927Z,11.10
2019-04-25T22:32:46.987Z,11.00
2019-04-25T22:35:24.158Z,10.90
2019-04-25T22:37:51.449Z,10.90
2019-04-25T22:40:18.843Z,10.90
2019-04-25T22:42:46.237Z,10.90
2019-04-25T22:45:13.630Z,10.90
2019-04-25T22:47:41.593Z,10.80
2019-04-25T22:50:09.016Z,10.80
2019-04-25T22:52:36.590Z,10.80
2019-04-25T22:55:04.285Z,10.80
2019-04-25T22:57:31.927Z,10.80
2019-04-25T22:59:59.302Z,10.90
2019-04-25T23:02:41.712Z,10.90
2019-04-25T23:05:16.429Z,10.90
2019-04-25T23:07:43.927Z,10.90
2019-04-25T23:10:12.353Z,10.80
2019-04-25T23:12:39.711Z,10.90
2019-04-25T23:15:07.294Z,10.90
2019-04-25T23:17:34.666Z,10.90
2019-04-25T23:20:04.197Z,11.00
2019-04-25T23:22:31.457Z,11.00
2019-04-25T23:25:04.935Z,11.00
2019-04-25T23:27:55.967Z,11.10
2019-04-25T23:30:27.335Z,11.10
2019-04-25T23:32:54.722Z,11.20
2019-04-25T23:35:29.444Z,11.20
2019-04-25T23:37:51.310Z,11.10
2019-04-25T23:40:18.703Z,11.10
2019-04-25T23:42:46.106Z,11.20
2019-04-25T23:45:14.541Z,11.20
2019-04-25T23:47:42.011Z,11.10
2019-04-25T23:50:10.501Z,11.10
2019-04-25T23:52:37.893Z,11.10
2019-04-25T23:55:05.435Z,11.20
2019-04-25T23:57:32.867Z,11.20
